Terminal Aerodrome Forecast
Issued by NWS

Current Version | Previous Version | Text Only | Print | Product List | Glossary On
Versions: 1 2 3 4 5 6 7 8 9 10 11 12 13 14 15 16 17
793
FTUS42 KMLB 231136
TAFSFB
TAF
KSFB 231136Z 2312/2412 15007KT P6SM SCT008 OVC020
      TEMPO 2312/2313 BKN008
     FM231400 18010KT P6SM VCSH SCT030 BKN080
     FM231800 19011KT P6SM VCTS SCT030CB BKN060
      TEMPO 2318/2322 2SM TSRA BKN025CB
     FM240000 19005KT P6SM VCSH SCT030 BKN060
     FM240800 23005KT P6SM BKN008=

USA.gov is the U.S. government's official web portal to all federal, state and local government web resources and services.